sensor_id;sensor_type;location;lat;lon;timestamp;temperature;humidity
19880;DHT22;10102;50.828;4.416;2023-04-16T00:04:36;10.90;99.90
19880;DHT22;10102;50.828;4.416;2023-04-16T00:07:03;10.70;99.90
19880;DHT22;10102;50.828;4.416;2023-04-16T00:09:28;10.80;99.90
19880;DHT22;10102;50.828;4.416;2023-04-16T00:11:54;10.70;99.90
19880;DHT22;10102;50.828;4.416;2023-04-16T00:14:20;10.80;99.90
19880;DHT22;10102;50.828;4.416;2023-04-16T00:16:45;10.70;99.90
19880;DHT22;10102;50.828;4.416;2023-04-16T00:19:11;10.60;99.90
19880;DHT22;10102;50.828;4.416;2023-04-16T00:24:03;10.50;99.90
19880;DHT22;10102;50.828;4.416;2023-04-16T00:26:29;10.70;99.90
19880;DHT22;10102;50.828;4.416;2023-04-16T00:28:54;10.60;99.90
19880;DHT22;10102;50.828;4.416;2023-04-16T00:31:31;10.80;99.90
19880;DHT22;10102;50.828;4.416;2023-04-16T00:36:23;10.50;99.90
19880;DHT22;10102;50.828;4.416;2023-04-16T00:38:49;10.90;99.90
19880;DHT22;10102;50.828;4.416;2023-04-16T00:41:16;10.90;99.90
19880;DHT22;10102;50.828;4.416;2023-04-16T00:43:44;10.80;99.90
19880;DHT22;10102;50.828;4.416;2023-04-16T00:46:10;10.70;99.90
19880;DHT22;10102;50.828;4.416;2023-04-16T00:48:38;10.90;99.90
19880;DHT22;10102;50.828;4.416;2023-04-16T00:51:06;10.80;99.90
19880;DHT22;10102;50.828;4.416;2023-04-16T00:53:32;10.80;99.90
19880;DHT22;10102;50.828;4.416;2023-04-16T00:55:59;10.60;99.90
19880;DHT22;10102;50.828;4.416;2023-04-16T00:58:25;10.70;99.90
19880;DHT22;10102;50.828;4.416;2023-04-16T01:05:43;10.60;99.90
19880;DHT22;10102;50.828;4.416;2023-04-16T01:08:20;10.70;99.90
19880;DHT22;10102;50.828;4.416;2023-04-16T01:10:47;10.60;99.90
19880;DHT22;10102;50.828;4.416;2023-04-16T01:13:13;10.80;99.90
19880;DHT22;10102;50.828;4.416;2023-04-16T01:15:39;10.80;99.90
19880;DHT22;10102;50.828;4.416;2023-04-16T01:18:18;10.70;99.90
19880;DHT22;10102;50.828;4.416;2023-04-16T01:20:46;10.70;99.90
19880;DHT22;10102;50.828;4.416;2023-04-16T01:23:11;10.70;99.90
19880;DHT22;10102;50.828;4.416;2023-04-16T01:25:37;10.70;99.90
19880;DHT22;10102;50.828;4.416;2023-04-16T01:28:03;10.80;99.90
19880;DHT22;10102;50.828;4.416;2023-04-16T01:30:30;11.30;99.90
19880;DHT22;10102;50.828;4.416;2023-04-16T01:32:56;10.70;99.90
19880;DHT22;10102;50.828;4.416;2023-04-16T01:35:23;10.60;99.90
19880;DHT22;10102;50.828;4.416;2023-04-16T01:37:50;10.70;99.90
19880;DHT22;10102;50.828;4.416;2023-04-16T01:40:17;10.60;99.90
19880;DHT22;10102;50.828;4.416;2023-04-16T01:42:43;10.60;99.90
19880;DHT22;10102;50.828;4.416;2023-04-16T01:45:09;10.70;99.90
19880;DHT22;10102;50.828;4.416;2023-04-16T01:50:02;10.50;99.90
19880;DHT22;10102;50.828;4.416;2023-04-16T01:52:28;10.40;99.90
19880;DHT22;10102;50.828;4.416;2023-04-16T01:59:46;10.50;99.90
19880;DHT22;10102;50.828;4.416;2023-04-16T02:02:14;10.60;99.90
19880;DHT22;10102;50.828;4.416;2023-04-16T02:04:44;10.70;99.90
19880;DHT22;10102;50.828;4.416;2023-04-16T02:07:12;10.70;99.90
19880;DHT22;10102;50.828;4.416;2023-04-16T02:09:39;10.60;99.90
19880;DHT22;10102;50.828;4.416;2023-04-16T02:12:05;10.40;99.90
19880;DHT22;10102;50.828;4.416;2023-04-16T02:14:32;10.40;99.90
19880;DHT22;10102;50.828;4.416;2023-04-16T02:16:58;10.40;99.90
19880;DHT22;10102;50.828;4.416;2023-04-16T02:21:51;10.50;99.90
19880;DHT22;10102;50.828;4.416;2023-04-16T02:24:17;10.50;99.90
19880;DHT22;10102;50.828;4.416;2023-04-16T02:29:09;10.60;99.90
19880;DHT22;10102;50.828;4.416;2023-04-16T02:34:02;11.30;99.90
19880;DHT22;10102;50.828;4.416;2023-04-16T02:38:54;10.80;99.90
19880;DHT22;10102;50.828;4.416;2023-04-16T02:43:46;10.80;99.90
19880;DHT22;10102;50.828;4.416;2023-04-16T02:46:12;10.60;99.90
19880;DHT22;10102;50.828;4.416;2023-04-16T02:48:39;10.70;99.90
19880;DHT22;10102;50.828;4.416;2023-04-16T02:51:05;10.80;99.90
19880;DHT22;10102;50.828;4.416;2023-04-16T02:58:24;10.70;99.90
19880;DHT22;10102;50.828;4.416;2023-04-16T03:00:50;10.60;99.90
19880;DHT22;10102;50.828;4.416;2023-04-16T03:05:42;10.30;99.90
19880;DHT22;10102;50.828;4.416;2023-04-16T03:08:08;10.60;99.90
19880;DHT22;10102;50.828;4.416;2023-04-16T03:10:34;10.60;99.90
19880;DHT22;10102;50.828;4.416;2023-04-16T03:13:00;10.60;99.90
19880;DHT22;10102;50.828;4.416;2023-04-16T03:15:26;10.60;99.90
19880;DHT22;10102;50.828;4.416;2023-04-16T03:22:45;10.60;99.90
19880;DHT22;10102;50.828;4.416;2023-04-16T03:25:11;10.70;99.90
19880;DHT22;10102;50.828;4.416;2023-04-16T03:27:36;10.80;99.90
19880;DHT22;10102;50.828;4.416;2023-04-16T03:30:05;10.80;99.90
19880;DHT22;10102;50.828;4.416;2023-04-16T03:32:31;10.70;99.90
19880;DHT22;10102;50.828;4.416;2023-04-16T03:34:57;10.50;99.90
19880;DHT22;10102;50.828;4.416;2023-04-16T03:42:15;10.50;99.90
19880;DHT22;10102;50.828;4.416;2023-04-16T03:47:06;10.90;99.90
19880;DHT22;10102;50.828;4.416;2023-04-16T03:49:32;10.70;99.90
19880;DHT22;10102;50.828;4.416;2023-04-16T03:51:58;10.50;99.90
19880;DHT22;10102;50.828;4.416;2023-04-16T03:59:16;10.50;99.90
19880;DHT22;10102;50.828;4.416;2023-04-16T04:01:42;10.40;99.90
19880;DHT22;10102;50.828;4.416;2023-04-16T04:04:08;10.40;99.90
19880;DHT22;10102;50.828;4.416;2023-04-16T04:06:34;10.40;99.90
19880;DHT22;10102;50.828;4.416;2023-04-16T04:11:26;10.10;99.90
19880;DHT22;10102;50.828;4.416;2023-04-16T04:13:51;10.40;99.90
19880;DHT22;10102;50.828;4.416;2023-04-16T04:18:43;10.40;99.90
19880;DHT22;10102;50.828;4.416;2023-04-16T04:21:09;10.40;99.90
19880;DHT22;10102;50.828;4.416;2023-04-16T04:23:35;10.40;99.90
19880;DHT22;10102;50.828;4.416;2023-04-16T04:26:01;10.30;99.90
19880;DHT22;10102;50.828;4.416;2023-04-16T04:28:30;10.40;99.90
19880;DHT22;10102;50.828;4.416;2023-04-16T04:30:57;10.30;99.90
19880;DHT22;10102;50.828;4.416;2023-04-16T04:33:27;10.50;99.90
19880;DHT22;10102;50.828;4.416;2023-04-16T04:35:54;10.40;99.90
19880;DHT22;10102;50.828;4.416;2023-04-16T04:38:21;10.30;99.90
19880;DHT22;10102;50.828;4.416;2023-04-16T04:40:53;10.30;99.90
19880;DHT22;10102;50.828;4.416;2023-04-16T04:43:20;10.40;99.90
19880;DHT22;10102;50.828;4.416;2023-04-16T04:45:46;10.30;99.90
19880;DHT22;10102;50.828;4.416;2023-04-16T04:48:13;10.20;99.90
19880;DHT22;10102;50.828;4.416;2023-04-16T04:55:37;10.20;99.90
19880;DHT22;10102;50.828;4.416;2023-04-16T04:58:07;10.30;99.90
19880;DHT22;10102;50.828;4.416;2023-04-16T05:00:33;10.40;99.90
19880;DHT22;10102;50.828;4.416;2023-04-16T05:03:03;10.30;99.90
19880;DHT22;10102;50.828;4.416;2023-04-16T05:05:28;10.30;99.90
19880;DHT22;10102;50.828;4.416;2023-04-16T05:10:20;10.30;99.90
19880;DHT22;10102;50.828;4.416;2023-04-16T05:12:47;10.40;99.90
19880;DHT22;10102;50.828;4.416;2023-04-16T05:15:13;10.40;99.90
19880;DHT22;10102;50.828;4.416;2023-04-16T05:20:07;10.70;99.90
19880;DHT22;10102;50.828;4.416;2023-04-16T05:22:33;10.40;99.90
19880;DHT22;10102;50.828;4.416;2023-04-16T05:24:59;10.40;99.90
19880;DHT22;10102;50.828;4.416;2023-04-16T05:32:16;10.50;99.90
19880;DHT22;10102;50.828;4.416;2023-04-16T05:34:42;10.50;99.90
19880;DHT22;10102;50.828;4.416;2023-04-16T05:37:07;10.50;99.90
19880;DHT22;10102;50.828;4.416;2023-04-16T05:39:33;10.50;99.90
19880;DHT22;10102;50.828;4.416;2023-04-16T05:41:59;10.50;99.90
19880;DHT22;10102;50.828;4.416;2023-04-16T05:44:25;10.50;99.90
19880;DHT22;10102;50.828;4.416;2023-04-16T05:49:17;10.50;99.90
19880;DHT22;10102;50.828;4.416;2023-04-16T05:51:49;10.50;99.90
19880;DHT22;10102;50.828;4.416;2023-04-16T05:59:07;10.60;99.90
19880;DHT22;10102;50.828;4.416;2023-04-16T06:01:32;10.60;99.90
19880;DHT22;10102;50.828;4.416;2023-04-16T06:03:58;10.50;99.90
19880;DHT22;10102;50.828;4.416;2023-04-16T06:06:24;10.20;99.90
19880;DHT22;10102;50.828;4.416;2023-04-16T06:13:43;10.30;99.90
19880;DHT22;10102;50.828;4.416;2023-04-16T06:16:09;9.90;99.90
19880;DHT22;10102;50.828;4.416;2023-04-16T06:18:36;10.30;99.90
19880;DHT22;10102;50.828;4.416;2023-04-16T06:21:02;10.30;99.90
19880;DHT22;10102;50.828;4.416;2023-04-16T06:23:28;10.30;99.90
19880;DHT22;10102;50.828;4.416;2023-04-16T06:25:54;10.40;99.90
19880;DHT22;10102;50.828;4.416;2023-04-16T06:28:20;10.40;99.90
19880;DHT22;10102;50.828;4.416;2023-04-16T06:33:12;10.60;99.90
19880;DHT22;10102;50.828;4.416;2023-04-16T06:38:04;10.50;99.90
19880;DHT22;10102;50.828;4.416;2023-04-16T06:40:30;10.30;99.90
19880;DHT22;10102;50.828;4.416;2023-04-16T06:42:55;10.40;99.90
19880;DHT22;10102;50.828;4.416;2023-04-16T06:45:21;10.60;99.90
19880;DHT22;10102;50.828;4.416;2023-04-16T06:47:47;10.40;99.90
19880;DHT22;10102;50.828;4.416;2023-04-16T06:55:05;10.70;99.90
19880;DHT22;10102;50.828;4.416;2023-04-16T06:57:32;10.60;99.90
19880;DHT22;10102;50.828;4.416;2023-04-16T06:59:58;10.60;99.90
19880;DHT22;10102;50.828;4.416;2023-04-16T07:07:17;10.60;99.90
19880;DHT22;10102;50.828;4.416;2023-04-16T07:09:43;10.50;99.90
19880;DHT22;10102;50.828;4.416;2023-04-16T07:14:35;10.40;99.90
19880;DHT22;10102;50.828;4.416;2023-04-16T07:17:01;10.50;99.90
19880;DHT22;10102;50.828;4.416;2023-04-16T07:19:26;10.30;99.90
19880;DHT22;10102;50.828;4.416;2023-04-16T07:21:57;10.50;99.90
19880;DHT22;10102;50.828;4.416;2023-04-16T07:24:22;10.30;99.90
19880;DHT22;10102;50.828;4.416;2023-04-16T07:26:48;10.40;99.90
19880;DHT22;10102;50.828;4.416;2023-04-16T07:34:06;10.60;99.90
19880;DHT22;10102;50.828;4.416;2023-04-16T07:36:32;10.60;99.90
19880;DHT22;10102;50.828;4.416;2023-04-16T07:38:57;10.60;99.90
19880;DHT22;10102;50.828;4.416;2023-04-16T07:41:23;10.80;99.90
19880;DHT22;10102;50.828;4.416;2023-04-16T07:43:48;10.90;99.90
19880;DHT22;10102;50.828;4.416;2023-04-16T07:46:14;10.80;99.90
19880;DHT22;10102;50.828;4.416;2023-04-16T07:48:41;10.80;99.90
19880;DHT22;10102;50.828;4.416;2023-04-16T07:51:06;10.50;99.90
19880;DHT22;10102;50.828;4.416;2023-04-16T07:58:25;10.80;99.90
19880;DHT22;10102;50.828;4.416;2023-04-16T08:05:42;10.60;99.90
19880;DHT22;10102;50.828;4.416;2023-04-16T08:08:08;11.10;99.90
19880;DHT22;10102;50.828;4.416;2023-04-16T08:10:34;11.10;99.90
19880;DHT22;10102;50.828;4.416;2023-04-16T08:13:00;11.10;99.90
19880;DHT22;10102;50.828;4.416;2023-04-16T08:15:26;11.10;99.90
19880;DHT22;10102;50.828;4.416;2023-04-16T08:17:52;11.20;99.90
19880;DHT22;10102;50.828;4.416;2023-04-16T08:20:18;11.10;99.90
19880;DHT22;10102;50.828;4.416;2023-04-16T08:22:44;11.10;99.90
19880;DHT22;10102;50.828;4.416;2023-04-16T08:25:10;11.20;99.90
19880;DHT22;10102;50.828;4.416;2023-04-16T08:27:36;11.10;99.90
19880;DHT22;10102;50.828;4.416;2023-04-16T08:30:02;11.10;99.90
19880;DHT22;10102;50.828;4.416;2023-04-16T08:32:28;11.20;99.90
19880;DHT22;10102;50.828;4.416;2023-04-16T08:39:47;10.90;99.90
19880;DHT22;10102;50.828;4.416;2023-04-16T08:42:39;11.20;99.90
19880;DHT22;10102;50.828;4.416;2023-04-16T08:45:16;11.30;99.90
19880;DHT22;10102;50.828;4.416;2023-04-16T08:47:48;11.40;99.90
19880;DHT22;10102;50.828;4.416;2023-04-16T08:50:15;11.20;99.90
19880;DHT22;10102;50.828;4.416;2023-04-16T08:53:03;11.00;99.90
19880;DHT22;10102;50.828;4.416;2023-04-16T08:55:40;11.40;99.90
19880;DHT22;10102;50.828;4.416;2023-04-16T08:58:28;11.40;99.90
19880;DHT22;10102;50.828;4.416;2023-04-16T09:00:54;11.10;99.90
19880;DHT22;10102;50.828;4.416;2023-04-16T09:03:20;11.40;99.90
19880;DHT22;10102;50.828;4.416;2023-04-16T09:05:46;11.60;99.90
19880;DHT22;10102;50.828;4.416;2023-04-16T09:08:13;11.50;99.90
19880;DHT22;10102;50.828;4.416;2023-04-16T09:10:40;11.40;99.90
19880;DHT22;10102;50.828;4.416;2023-04-16T09:13:09;11.40;99.90
19880;DHT22;10102;50.828;4.416;2023-04-16T09:15:36;11.40;99.90
19880;DHT22;10102;50.828;4.416;2023-04-16T09:18:02;11.60;99.90
19880;DHT22;10102;50.828;4.416;2023-04-16T09:20:27;11.30;99.90
19880;DHT22;10102;50.828;4.416;2023-04-16T09:22:53;11.40;99.90
19880;DHT22;10102;50.828;4.416;2023-04-16T09:25:20;11.40;99.90
19880;DHT22;10102;50.828;4.416;2023-04-16T09:27:49;11.50;99.90
19880;DHT22;10102;50.828;4.416;2023-04-16T09:30:23;11.30;99.90
19880;DHT22;10102;50.828;4.416;2023-04-16T09:32:50;11.40;99.90
19880;DHT22;10102;50.828;4.416;2023-04-16T09:35:17;11.40;99.90
19880;DHT22;10102;50.828;4.416;2023-04-16T09:37:43;11.30;99.90
19880;DHT22;10102;50.828;4.416;2023-04-16T09:40:23;11.20;99.90
19880;DHT22;10102;50.828;4.416;2023-04-16T09:42:51;11.30;99.90
19880;DHT22;10102;50.828;4.416;2023-04-16T09:45:17;11.60;99.90
19880;DHT22;10102;50.828;4.416;2023-04-16T09:47:44;11.20;99.90
19880;DHT22;10102;50.828;4.416;2023-04-16T09:50:15;11.40;99.90
19880;DHT22;10102;50.828;4.416;2023-04-16T09:52:42;11.40;99.90
19880;DHT22;10102;50.828;4.416;2023-04-16T09:55:09;11.50;99.90
19880;DHT22;10102;50.828;4.416;2023-04-16T09:57:36;11.60;99.90
19880;DHT22;10102;50.828;4.416;2023-04-16T10:00:04;11.40;99.90
19880;DHT22;10102;50.828;4.416;2023-04-16T10:02:31;11.30;99.90
19880;DHT22;10102;50.828;4.416;2023-04-16T10:05:00;11.40;99.90
19880;DHT22;10102;50.828;4.416;2023-04-16T10:07:32;11.20;99.90
19880;DHT22;10102;50.828;4.416;2023-04-16T10:09:58;11.20;99.90
19880;DHT22;10102;50.828;4.416;2023-04-16T10:12:24;11.50;99.90
19880;DHT22;10102;50.828;4.416;2023-04-16T10:19:44;11.30;99.90
19880;DHT22;10102;50.828;4.416;2023-04-16T10:22:10;11.40;99.90
19880;DHT22;10102;50.828;4.416;2023-04-16T10:24:36;11.40;99.90
19880;DHT22;10102;50.828;4.416;2023-04-16T10:27:01;11.40;99.90
19880;DHT22;10102;50.828;4.416;2023-04-16T10:29:29;11.50;99.90
19880;DHT22;10102;50.828;4.416;2023-04-16T10:31:55;11.50;99.90
19880;DHT22;10102;50.828;4.416;2023-04-16T10:34:23;11.50;99.90
19880;DHT22;10102;50.828;4.416;2023-04-16T10:36:53;11.50;99.90
19880;DHT22;10102;50.828;4.416;2023-04-16T10:39:27;11.60;99.90
19880;DHT22;10102;50.828;4.416;2023-04-16T10:42:19;11.50;99.90
19880;DHT22;10102;50.828;4.416;2023-04-16T10:44:46;11.60;99.90
19880;DHT22;10102;50.828;4.416;2023-04-16T10:47:12;11.70;99.90
19880;DHT22;10102;50.828;4.416;2023-04-16T10:52:12;11.70;99.90
19880;DHT22;10102;50.828;4.416;2023-04-16T10:54:38;11.60;99.90
19880;DHT22;10102;50.828;4.416;2023-04-16T10:57:13;11.60;99.90
19880;DHT22;10102;50.828;4.416;2023-04-16T10:59:41;11.50;99.90
19880;DHT22;10102;50.828;4.416;2023-04-16T11:02:12;11.60;99.90
19880;DHT22;10102;50.828;4.416;2023-04-16T11:04:40;11.60;99.90
19880;DHT22;10102;50.828;4.416;2023-04-16T11:07:16;11.80;99.90
19880;DHT22;10102;50.828;4.416;2023-04-16T11:12:26;11.90;99.90
19880;DHT22;10102;50.828;4.416;2023-04-16T11:17:37;11.80;99.90
19880;DHT22;10102;50.828;4.416;2023-04-16T11:20:09;11.70;99.90
19880;DHT22;10102;50.828;4.416;2023-04-16T11:22:35;11.50;99.90
19880;DHT22;10102;50.828;4.416;2023-04-16T11:25:01;11.60;99.90
19880;DHT22;10102;50.828;4.416;2023-04-16T11:27:29;11.50;99.90
19880;DHT22;10102;50.828;4.416;2023-04-16T11:30:06;11.70;99.90
19880;DHT22;10102;50.828;4.416;2023-04-16T11:32:35;11.70;99.90
19880;DHT22;10102;50.828;4.416;2023-04-16T11:35:03;11.80;99.90
19880;DHT22;10102;50.828;4.416;2023-04-16T11:37:34;11.90;99.90
19880;DHT22;10102;50.828;4.416;2023-04-16T11:40:01;11.70;99.90
19880;DHT22;10102;50.828;4.416;2023-04-16T11:42:29;11.80;99.90
19880;DHT22;10102;50.828;4.416;2023-04-16T11:44:56;11.80;99.90
19880;DHT22;10102;50.828;4.416;2023-04-16T11:47:23;11.80;99.90
19880;DHT22;10102;50.828;4.416;2023-04-16T11:49:49;11.90;99.90
19880;DHT22;10102;50.828;4.416;2023-04-16T11:52:31;11.80;99.90
19880;DHT22;10102;50.828;4.416;2023-04-16T11:54:58;11.50;99.90
19880;DHT22;10102;50.828;4.416;2023-04-16T11:57:28;11.80;99.90
19880;DHT22;10102;50.828;4.416;2023-04-16T11:59:55;12.00;99.90
19880;DHT22;10102;50.828;4.416;2023-04-16T12:02:44;12.00;99.90
19880;DHT22;10102;50.828;4.416;2023-04-16T12:07:58;12.20;99.90
19880;DHT22;10102;50.828;4.416;2023-04-16T12:10:24;12.30;99.90
19880;DHT22;10102;50.828;4.416;2023-04-16T12:12:50;12.30;99.90
19880;DHT22;10102;50.828;4.416;2023-04-16T12:15:16;12.30;99.90
19880;DHT22;10102;50.828;4.416;2023-04-16T12:17:42;12.40;99.90
19880;DHT22;10102;50.828;4.416;2023-04-16T12:20:09;12.50;99.90
19880;DHT22;10102;50.828;4.416;2023-04-16T12:22:37;12.10;99.90
19880;DHT22;10102;50.828;4.416;2023-04-16T12:25:10;12.40;99.90
19880;DHT22;10102;50.828;4.416;2023-04-16T12:27:49;12.50;99.90
19880;DHT22;10102;50.828;4.416;2023-04-16T12:30:20;12.30;99.90
19880;DHT22;10102;50.828;4.416;2023-04-16T12:32:48;12.20;99.90
19880;DHT22;10102;50.828;4.416;2023-04-16T12:35:29;12.40;99.90
19880;DHT22;10102;50.828;4.416;2023-04-16T12:37:55;12.20;99.90
19880;DHT22;10102;50.828;4.416;2023-04-16T12:40:21;12.30;99.90
19880;DHT22;10102;50.828;4.416;2023-04-16T12:42:47;12.60;99.90
19880;DHT22;10102;50.828;4.416;2023-04-16T12:45:12;12.30;99.90
19880;DHT22;10102;50.828;4.416;2023-04-16T12:50:04;12.20;99.90
19880;DHT22;10102;50.828;4.416;2023-04-16T12:52:30;12.40;99.90
19880;DHT22;10102;50.828;4.416;2023-04-16T12:54:56;12.30;99.90
19880;DHT22;10102;50.828;4.416;2023-04-16T12:57:21;12.20;99.90
19880;DHT22;10102;50.828;4.416;2023-04-16T12:59:53;12.30;99.90
19880;DHT22;10102;50.828;4.416;2023-04-16T13:02:20;12.10;99.90
19880;DHT22;10102;50.828;4.416;2023-04-16T13:04:45;12.20;99.90
19880;DHT22;10102;50.828;4.416;2023-04-16T13:09:37;12.20;99.90
19880;DHT22;10102;50.828;4.416;2023-04-16T13:12:02;12.30;99.90
19880;DHT22;10102;50.828;4.416;2023-04-16T13:14:28;12.40;99.90
19880;DHT22;10102;50.828;4.416;2023-04-16T13:16:54;12.40;99.90
19880;DHT22;10102;50.828;4.416;2023-04-16T13:19:19;12.50;99.90
19880;DHT22;10102;50.828;4.416;2023-04-16T13:21:45;12.30;99.90
19880;DHT22;10102;50.828;4.416;2023-04-16T13:26:37;12.50;99.90
19880;DHT22;10102;50.828;4.416;2023-04-16T13:31:29;12.80;99.90
19880;DHT22;10102;50.828;4.416;2023-04-16T13:33:55;12.80;99.90
19880;DHT22;10102;50.828;4.416;2023-04-16T13:36:20;12.90;99.90
19880;DHT22;10102;50.828;4.416;2023-04-16T13:43:38;12.80;99.90
19880;DHT22;10102;50.828;4.416;2023-04-16T13:46:03;13.00;99.90
19880;DHT22;10102;50.828;4.416;2023-04-16T13:48:29;12.90;99.90
19880;DHT22;10102;50.828;4.416;2023-04-16T13:50:55;13.00;99.90
19880;DHT22;10102;50.828;4.416;2023-04-16T13:53:21;12.90;99.90
19880;DHT22;10102;50.828;4.416;2023-04-16T13:55:46;12.70;99.90
19880;DHT22;10102;50.828;4.416;2023-04-16T13:58:14;12.70;99.90
19880;DHT22;10102;50.828;4.416;2023-04-16T14:00:41;12.80;99.90
19880;DHT22;10102;50.828;4.416;2023-04-16T14:07:59;13.00;99.90
19880;DHT22;10102;50.828;4.416;2023-04-16T14:12:51;13.20;99.90
19880;DHT22;10102;50.828;4.416;2023-04-16T14:15:17;13.30;99.90
19880;DHT22;10102;50.828;4.416;2023-04-16T14:17:43;13.20;99.90
19880;DHT22;10102;50.828;4.416;2023-04-16T14:20:11;13.20;99.90
19880;DHT22;10102;50.828;4.416;2023-04-16T14:22:37;13.30;99.90
19880;DHT22;10102;50.828;4.416;2023-04-16T14:25:03;13.20;99.90
19880;DHT22;10102;50.828;4.416;2023-04-16T14:29:55;13.40;99.90
19880;DHT22;10102;50.828;4.416;2023-04-16T14:32:20;13.50;99.90
19880;DHT22;10102;50.828;4.416;2023-04-16T14:34:46;13.70;99.90
19880;DHT22;10102;50.828;4.416;2023-04-16T14:37:12;13.80;99.90
19880;DHT22;10102;50.828;4.416;2023-04-16T14:42:04;13.80;99.90
19880;DHT22;10102;50.828;4.416;2023-04-16T14:44:31;13.50;99.90
19880;DHT22;10102;50.828;4.416;2023-04-16T14:49:22;14.00;99.90
19880;DHT22;10102;50.828;4.416;2023-04-16T14:51:48;14.00;99.90
19880;DHT22;10102;50.828;4.416;2023-04-16T14:54:14;13.90;99.90
19880;DHT22;10102;50.828;4.416;2023-04-16T15:01:32;13.50;99.90
19880;DHT22;10102;50.828;4.416;2023-04-16T15:03:58;13.20;99.90
19880;DHT22;10102;50.828;4.416;2023-04-16T15:06:24;13.30;99.90
19880;DHT22;10102;50.828;4.416;2023-04-16T15:11:17;13.40;99.90
19880;DHT22;10102;50.828;4.416;2023-04-16T15:13:42;13.40;99.90
19880;DHT22;10102;50.828;4.416;2023-04-16T15:16:08;13.20;99.90
19880;DHT22;10102;50.828;4.416;2023-04-16T15:18:34;13.10;99.90
19880;DHT22;10102;50.828;4.416;2023-04-16T15:21:01;13.20;99.90
19880;DHT22;10102;50.828;4.416;2023-04-16T15:25:52;13.20;99.90
19880;DHT22;10102;50.828;4.416;2023-04-16T15:28:18;13.10;99.90
19880;DHT22;10102;50.828;4.416;2023-04-16T15:30:44;13.20;99.90
19880;DHT22;10102;50.828;4.416;2023-04-16T15:33:10;13.10;99.90
19880;DHT22;10102;50.828;4.416;2023-04-16T15:35:36;13.20;99.90
19880;DHT22;10102;50.828;4.416;2023-04-16T15:38:06;13.20;99.90
19880;DHT22;10102;50.828;4.416;2023-04-16T15:40:31;13.30;99.90
19880;DHT22;10102;50.828;4.416;2023-04-16T15:45:23;12.90;99.90
19880;DHT22;10102;50.828;4.416;2023-04-16T15:47:49;13.00;99.90
19880;DHT22;10102;50.828;4.416;2023-04-16T15:50:18;13.40;99.90
19880;DHT22;10102;50.828;4.416;2023-04-16T15:52:47;13.30;99.90
19880;DHT22;10102;50.828;4.416;2023-04-16T15:55:16;13.60;99.90
19880;DHT22;10102;50.828;4.416;2023-04-16T16:00:09;13.70;99.90
19880;DHT22;10102;50.828;4.416;2023-04-16T16:02:42;13.70;99.90
19880;DHT22;10102;50.828;4.416;2023-04-16T16:05:09;13.50;99.90
19880;DHT22;10102;50.828;4.416;2023-04-16T16:07:35;13.50;99.90
19880;DHT22;10102;50.828;4.416;2023-04-16T16:10:01;13.50;99.90
19880;DHT22;10102;50.828;4.416;2023-04-16T16:14:53;13.40;99.90
19880;DHT22;10102;50.828;4.416;2023-04-16T16:17:18;13.40;99.90
19880;DHT22;10102;50.828;4.416;2023-04-16T16:29:37;13.30;99.90
19880;DHT22;10102;50.828;4.416;2023-04-16T16:32:03;13.40;99.90
19880;DHT22;10102;50.828;4.416;2023-04-16T16:34:29;13.50;99.90
19880;DHT22;10102;50.828;4.416;2023-04-16T16:36:54;13.50;99.90
19880;DHT22;10102;50.828;4.416;2023-04-16T16:39:20;13.60;99.90
19880;DHT22;10102;50.828;4.416;2023-04-16T16:44:17;13.40;99.90
19880;DHT22;10102;50.828;4.416;2023-04-16T16:46:43;13.40;99.90
19880;DHT22;10102;50.828;4.416;2023-04-16T16:49:09;11.10;99.90
19880;DHT22;10102;50.828;4.416;2023-04-16T16:51:34;13.60;99.90
19880;DHT22;10102;50.828;4.416;2023-04-16T16:54:00;13.40;99.90
19880;DHT22;10102;50.828;4.416;2023-04-16T16:56:26;13.40;99.90
19880;DHT22;10102;50.828;4.416;2023-04-16T17:03:44;13.50;99.90
19880;DHT22;10102;50.828;4.416;2023-04-16T17:06:10;13.60;99.90
19880;DHT22;10102;50.828;4.416;2023-04-16T17:08:36;13.60;99.90
19880;DHT22;10102;50.828;4.416;2023-04-16T17:11:02;13.50;99.90
19880;DHT22;10102;50.828;4.416;2023-04-16T17:15:57;13.40;99.90
19880;DHT22;10102;50.828;4.416;2023-04-16T17:23:15;13.30;99.90
19880;DHT22;10102;50.828;4.416;2023-04-16T17:25:41;13.20;99.90
19880;DHT22;10102;50.828;4.416;2023-04-16T17:28:06;12.80;99.90
19880;DHT22;10102;50.828;4.416;2023-04-16T17:30:32;13.10;99.90
19880;DHT22;10102;50.828;4.416;2023-04-16T17:32:58;13.10;99.90
19880;DHT22;10102;50.828;4.416;2023-04-16T17:37:50;12.90;99.90
19880;DHT22;10102;50.828;4.416;2023-04-16T17:40:16;13.00;99.90
19880;DHT22;10102;50.828;4.416;2023-04-16T17:42:43;13.10;99.90
19880;DHT22;10102;50.828;4.416;2023-04-16T17:45:10;12.60;99.90
19880;DHT22;10102;50.828;4.416;2023-04-16T17:47:36;13.00;99.90
19880;DHT22;10102;50.828;4.416;2023-04-16T17:50:02;12.90;99.90
19880;DHT22;10102;50.828;4.416;2023-04-16T17:52:28;13.20;99.90
19880;DHT22;10102;50.828;4.416;2023-04-16T17:54:54;12.80;99.90
19880;DHT22;10102;50.828;4.416;2023-04-16T17:59:51;12.70;99.90
19880;DHT22;10102;50.828;4.416;2023-04-16T18:02:17;12.70;99.90
19880;DHT22;10102;50.828;4.416;2023-04-16T18:04:42;12.80;99.90
19880;DHT22;10102;50.828;4.416;2023-04-16T18:07:08;12.90;99.90
19880;DHT22;10102;50.828;4.416;2023-04-16T18:09:34;12.80;99.90
19880;DHT22;10102;50.828;4.416;2023-04-16T18:14:26;12.70;99.90
19880;DHT22;10102;50.828;4.416;2023-04-16T18:16:52;12.60;99.90
19880;DHT22;10102;50.828;4.416;2023-04-16T18:21:43;12.60;99.90
19880;DHT22;10102;50.828;4.416;2023-04-16T18:24:09;13.00;99.90
19880;DHT22;10102;50.828;4.416;2023-04-16T18:26:35;12.50;99.90
19880;DHT22;10102;50.828;4.416;2023-04-16T18:31:27;12.60;99.90
19880;DHT22;10102;50.828;4.416;2023-04-16T18:33:52;12.60;99.90
19880;DHT22;10102;50.828;4.416;2023-04-16T18:36:18;12.60;99.90
19880;DHT22;10102;50.828;4.416;2023-04-16T18:38:44;12.50;99.90
19880;DHT22;10102;50.828;4.416;2023-04-16T18:41:16;12.50;99.90
19880;DHT22;10102;50.828;4.416;2023-04-16T18:43:42;12.50;99.90
19880;DHT22;10102;50.828;4.416;2023-04-16T18:46:08;12.60;99.90
19880;DHT22;10102;50.828;4.416;2023-04-16T18:48:33;12.50;99.90
19880;DHT22;10102;50.828;4.416;2023-04-16T18:50:59;12.60;99.90
19880;DHT22;10102;50.828;4.416;2023-04-16T18:53:25;12.60;99.90
19880;DHT22;10102;50.828;4.416;2023-04-16T18:55:53;12.40;99.90
19880;DHT22;10102;50.828;4.416;2023-04-16T18:58:20;12.60;99.90
19880;DHT22;10102;50.828;4.416;2023-04-16T19:05:38;12.60;99.90
19880;DHT22;10102;50.828;4.416;2023-04-16T19:08:04;12.60;99.90
19880;DHT22;10102;50.828;4.416;2023-04-16T19:10:29;12.40;99.90
19880;DHT22;10102;50.828;4.416;2023-04-16T19:12:55;12.60;99.90
19880;DHT22;10102;50.828;4.416;2023-04-16T19:15:21;12.40;99.90
19880;DHT22;10102;50.828;4.416;2023-04-16T19:22:39;12.30;99.90